Time;durP1;ratioP1;P1;durP2;ratioP2;P2;SDS_P1;SDS_P2;PMS_P1;PMS_P2;Temp;Humidity;BMP_temperature;BMP_pressure;BME280_temperature;BME280_humidity;BME280_pressure;Samples;Min_cycle;Max_cycle;Signal;HPM_P1;HPM_P2
2022/01/29 00:00:29;;;;;;;31.42;14.23;;;5.60;99.90;;;6.19;100.00;101817.06;5052239;28;20113;-86
2022/01/29 00:02:58;;;;;;;25.77;13.65;;;5.60;99.90;;;6.25;100.00;101810.31;5050959;28;20060;-84
2022/01/29 00:05:25;;;;;;;26.15;13.30;;;5.60;99.90;;;6.27;100.00;101808.03;5052954;28;20041;-86
2022/01/29 00:07:51;;;;;;;29.33;13.80;;;5.60;99.90;;;6.25;100.00;101817.81;5052019;28;20025;-83
2022/01/29 00:10:19;;;;;;;28.27;14.38;;;5.60;99.90;;;6.19;100.00;101816.25;5053449;28;20059;-86
2022/01/29 00:12:48;;;;;;;25.23;12.98;;;5.60;99.90;;;6.19;100.00;101805.13;5051824;28;20345;-85
2022/01/29 00:15:21;;;;;;;29.70;14.32;;;5.60;99.90;;;6.29;100.00;101814.09;5053241;28;20555;-87
2022/01/29 00:17:47;;;;;;;25.42;13.48;;;5.60;99.90;;;6.32;100.00;101804.38;5051956;28;20029;-84
2022/01/29 00:20:16;;;;;;;26.80;13.13;;;5.60;99.90;;;6.30;100.00;101806.63;5035944;28;20037;-84
2022/01/29 00:22:42;;;;;;;23.00;12.35;;;5.60;99.90;;;6.31;100.00;101803.56;5053003;28;20102;-84
2022/01/29 00:25:10;;;;;;;25.45;12.77;;;5.60;99.90;;;6.34;100.00;101800.16;5051822;28;20484;-84
2022/01/29 00:27:37;;;;;;;25.00;12.38;;;5.60;99.90;;;6.31;100.00;101799.94;4995794;28;20382;-85
2022/01/29 00:30:09;;;;;;;31.80;12.75;;;5.70;99.90;;;6.36;100.00;101797.06;4996781;28;20033;-84
2022/01/29 00:32:36;;;;;;;25.17;12.45;;;5.70;99.90;;;6.40;100.00;101797.31;4999676;28;20076;-85
2022/01/29 00:35:06;;;;;;;29.90;13.48;;;5.70;99.90;;;6.33;100.00;101794.91;4999514;28;20477;-85
2022/01/29 00:37:33;;;;;;;30.77;13.88;;;5.70;99.90;;;6.31;100.00;101802.72;4999587;28;20072;-84
2022/01/29 00:39:59;;;;;;;28.40;14.35;;;5.80;99.90;;;6.42;100.00;101786.75;5018929;28;20109;-86
2022/01/29 00:42:25;;;;;;;30.42;14.32;;;5.80;99.90;;;6.45;100.00;101789.75;5021982;28;20044;-85
2022/01/29 00:44:51;;;;;;;33.85;15.02;;;5.80;99.90;;;6.47;100.00;101795.78;5026984;28;20026;-85
2022/01/29 00:47:18;;;;;;;28.05;14.70;;;5.80;99.90;;;6.50;100.00;101800.75;5008621;28;20026;-83
2022/01/29 00:49:45;;;;;;;30.25;15.60;;;5.80;99.90;;;6.49;100.00;101804.63;5018549;28;20507;-84
2022/01/29 00:52:11;;;;;;;31.27;15.43;;;5.80;99.90;;;6.39;100.00;101790.91;5015383;28;20075;-87
2022/01/29 00:55:01;;;;;;;32.67;16.08;;;5.80;99.90;;;6.45;100.00;101783.34;5017673;28;20086;-87
2022/01/29 00:57:37;;;;;;;30.08;16.40;;;5.80;99.90;;;6.41;100.00;101783.13;5018070;28;20123;-83
2022/01/29 01:00:08;;;;;;;38.35;16.58;;;5.80;99.90;;;6.34;100.00;101780.75;5017244;28;20188;-86
2022/01/29 01:02:42;;;;;;;34.63;17.52;;;5.80;99.90;;;6.31;100.00;101763.88;5001834;28;20101;-84
2022/01/29 01:05:27;;;;;;;44.15;18.33;;;5.80;99.90;;;6.35;100.00;101745.50;5002371;28;20025;-87
2022/01/29 01:07:56;;;;;;;41.10;18.63;;;5.80;99.90;;;6.38;100.00;101736.56;5002012;28;20033;-87
2022/01/29 01:10:30;;;;;;;36.92;18.25;;;5.80;99.90;;;6.38;100.00;101731.00;5018542;28;20089;-85
2022/01/29 01:13:04;;;;;;;38.92;18.42;;;5.70;99.90;;;6.35;100.00;101718.59;5001719;28;20508;-87
2022/01/29 01:15:43;;;;;;;38.25;18.30;;;5.70;99.90;;;6.26;100.00;101711.25;5019919;28;20073;-85
2022/01/29 01:18:29;;;;;;;37.00;18.48;;;5.70;99.90;;;6.27;100.00;101708.16;5019595;28;20168;-87
2022/01/29 01:20:58;;;;;;;39.03;17.42;;;5.70;99.90;;;6.32;100.00;101699.75;5018929;28;20044;-87
2022/01/29 01:23:27;;;;;;;37.45;17.05;;;5.70;99.90;;;6.32;100.00;101696.16;5018647;28;20064;-88
2022/01/29 01:25:59;;;;;;;37.28;18.45;;;5.70;99.90;;;6.36;100.00;101702.72;5013143;28;20411;-89
2022/01/29 01:28:36;;;;;;;41.60;19.20;;;5.70;99.90;;;6.41;100.00;101696.28;5057325;28;20430;-88
2022/01/29 01:31:24;;;;;;;33.47;17.48;;;5.80;99.90;;;6.29;100.00;101688.44;5041178;28;20036;-89
2022/01/29 01:33:56;;;;;;;38.78;18.35;;;5.70;99.90;;;6.33;100.00;101683.91;5058647;28;20036;-87
2022/01/29 01:36:29;;;;;;;40.33;19.02;;;5.70;99.90;;;6.30;100.00;101679.81;5039244;28;20025;-89
2022/01/29 01:39:03;;;;;;;36.72;19.85;;;5.70;99.90;;;6.34;100.00;101674.47;5058738;28;20025;-86
2022/01/29 01:41:38;;;;;;;36.67;18.95;;;5.80;99.90;;;6.40;100.00;101675.19;5057560;28;20186;-84
2022/01/29 01:44:24;;;;;;;41.17;19.85;;;5.80;99.90;;;6.45;100.00;101667.63;5057170;28;20060;-87
2022/01/29 01:46:52;;;;;;;39.05;20.40;;;5.80;99.90;;;6.45;100.00;101670.41;5045988;28;20037;-84
2022/01/29 01:49:29;;;;;;;46.13;20.08;;;5.90;99.90;;;6.36;100.00;101663.88;5067487;28;20033;-84
2022/01/29 01:52:12;;;;;;;43.45;20.77;;;5.80;99.90;;;6.43;100.00;101666.25;5067880;28;20048;-87
2022/01/29 01:54:56;;;;;;;38.05;18.67;;;5.80;99.90;;;6.48;100.00;101677.28;5050497;28;20078;-87
2022/01/29 01:57:34;;;;;;;40.65;20.33;;;5.80;99.90;;;6.41;100.00;101660.19;5046608;28;20032;-87
2022/01/29 02:00:09;;;;;;;42.00;18.95;;;5.90;99.90;;;6.51;100.00;101668.34;5062513;28;20033;-87
2022/01/29 02:02:36;;;;;;;44.03;19.90;;;5.80;99.90;;;6.45;100.00;101662.06;5061574;28;20484;-87
2022/01/29 02:05:09;;;;;;;37.22;18.30;;;5.80;99.90;;;6.50;100.00;101648.09;5060117;28;20374;-86
2022/01/29 02:07:38;;;;;;;39.33;19.52;;;5.90;99.90;;;6.48;100.00;101639.25;5057138;28;20025;-88
2022/01/29 02:10:14;;;;;;;40.45;19.52;;;5.90;99.90;;;6.48;100.00;101630.09;5040321;28;20033;-86
2022/01/29 02:13:03;;;;;;;38.08;18.88;;;5.80;99.90;;;6.51;100.00;101633.09;5057372;28;20044;-85
2022/01/29 02:15:46;;;;;;;37.60;19.70;;;5.90;99.90;;;6.45;100.00;101639.88;5042392;28;20025;-86
2022/01/29 02:18:15;;;;;;;42.65;21.13;;;5.90;99.90;;;6.46;100.00;101630.41;5044016;28;20356;-84
2022/01/29 02:20:58;;;;;;;40.20;18.45;;;5.90;99.90;;;6.46;100.00;101616.50;5070868;28;20108;-85
2022/01/29 02:23:57;;;;;;;37.17;19.48;;;5.80;99.90;;;6.55;100.00;101630.53;5058607;28;20072;-84
2022/01/29 02:26:37;;;;;;;38.53;18.98;;;5.90;99.90;;;6.49;100.00;101631.72;5056978;28;20055;-87
2022/01/29 02:29:07;;;;;;;39.35;19.02;;;5.90;99.90;;;6.57;100.00;101625.47;5054218;28;20028;-85
2022/01/29 02:31:51;;;;;;;44.67;19.48;;;6.00;99.90;;;6.52;100.00;101633.91;5068076;28;20029;-84
2022/01/29 02:34:48;;;;;;;48.45;20.45;;;5.90;99.90;;;6.58;100.00;101625.16;5049264;28;20037;-85
2022/01/29 02:37:19;;;;;;;46.45;19.48;;;5.90;99.90;;;6.44;100.00;101609.63;5063573;28;20088;-87
2022/01/29 02:39:45;;;;;;;42.25;20.75;;;5.90;99.90;;;6.49;100.00;101603.97;5060942;28;20029;-87
2022/01/29 02:42:14;;;;;;;38.33;20.70;;;6.00;99.90;;;6.46;100.00;101596.25;5061073;28;20059;-87
2022/01/29 02:44:40;;;;;;;41.60;21.60;;;5.90;99.90;;;6.45;100.00;101586.31;5055673;28;20033;-85
2022/01/29 02:47:14;;;;;;;36.15;19.70;;;5.90;99.90;;;6.49;100.00;101581.75;5055641;28;20048;-85
2022/01/29 02:49:43;;;;;;;41.17;20.43;;;5.90;99.90;;;6.47;100.00;101571.00;5056068;28;20055;-86
2022/01/29 02:52:32;;;;;;;42.13;20.77;;;5.80;99.90;;;6.44;100.00;101571.63;5055787;28;20025;-82
2022/01/29 02:55:07;;;;;;;45.58;20.20;;;5.90;99.90;;;6.47;100.00;101567.38;5056078;28;20075;-87
2022/01/29 02:57:39;;;;;;;36.35;18.67;;;5.80;99.90;;;6.50;100.00;101575.09;5054861;28;20037;-84
2022/01/29 03:00:14;;;;;;;46.42;21.23;;;5.80;99.90;;;6.44;100.00;101565.22;5037359;28;20037;-85
2022/01/29 03:02:53;;;;;;;40.50;19.98;;;5.80;99.90;;;6.44;100.00;101573.56;5054178;28;20029;-88
2022/01/29 03:05:34;;;;;;;45.40;22.02;;;5.80;99.90;;;6.42;100.00;101557.22;5055781;28;20032;-83
2022/01/29 03:08:03;;;;;;;43.88;21.00;;;5.80;99.90;;;6.33;100.00;101547.97;5055043;28;20025;-86
2022/01/29 03:10:52;;;;;;;45.75;20.98;;;5.80;99.90;;;6.48;100.00;101564.31;5055212;28;20028;-85
2022/01/29 03:13:24;;;;;;;42.58;20.77;;;5.80;99.90;;;6.29;100.00;101544.19;5060307;28;20043;-87
2022/01/29 03:15:54;;;;;;;46.65;21.50;;;5.80;99.90;;;6.40;100.00;101547.53;5062515;28;20036;-84
2022/01/29 03:18:22;;;;;;;43.85;21.80;;;5.70;99.90;;;6.32;100.00;101544.34;5044790;28;20033;-85
2022/01/29 03:20:57;;;;;;;37.85;20.25;;;5.80;99.90;;;6.31;100.00;101534.41;5063693;28;20021;-85
2022/01/29 03:23:54;;;;;;;43.25;20.30;;;5.70;99.90;;;6.23;100.00;101531.50;5045536;28;20025;-89
2022/01/29 03:26:33;;;;;;;41.35;21.40;;;5.70;99.90;;;6.27;100.00;101546.41;5051896;28;20037;-88
2022/01/29 03:29:02;;;;;;;43.58;21.20;;;5.70;99.90;;;6.28;100.00;101535.03;5042355;28;20053;-88
2022/01/29 03:31:29;;;;;;;42.20;20.52;;;5.70;99.90;;;6.27;100.00;101527.00;5034251;28;20036;-88
2022/01/29 03:33:58;;;;;;;44.17;22.48;;;5.70;99.90;;;6.27;100.00;101522.28;5017712;28;20040;-90
2022/01/29 03:36:26;;;;;;;44.72;22.27;;;5.70;99.90;;;6.24;100.00;101517.34;5019911;28;20116;-91
2022/01/29 03:38:52;;;;;;;43.40;22.17;;;5.70;99.90;;;6.19;100.00;101520.22;5022250;28;20093;-92
2022/01/29 03:41:18;;;;;;;43.35;21.05;;;5.70;99.90;;;6.24;100.00;101520.13;5039613;28;20377;-86
2022/01/29 03:43:47;;;;;;;45.70;21.20;;;5.70;99.90;;;6.29;100.00;101531.09;5020410;28;20048;-87
2022/01/29 03:46:16;;;;;;;45.17;22.48;;;5.70;99.90;;;6.33;100.00;101525.75;5033289;28;20036;-86
2022/01/29 03:48:42;;;;;;;43.78;21.40;;;5.70;99.90;;;6.33;100.00;101520.22;5032793;28;20057;-86
2022/01/29 03:51:08;;;;;;;37.92;20.20;;;5.70;99.90;;;6.35;100.00;101515.19;5016908;28;20025;-87
2022/01/29 03:53:38;;;;;;;44.85;20.45;;;5.70;99.90;;;6.35;100.00;101506.88;5019366;28;20030;-88
2022/01/29 03:56:04;;;;;;;44.15;21.25;;;5.70;99.90;;;6.40;100.00;101509.53;5017197;28;20051;-87
2022/01/29 03:58:30;;;;;;;44.08;20.42;;;5.70;99.90;;;6.43;100.00;101497.81;5016571;28;20080;-87
2022/01/29 04:00:56;;;;;;;46.58;20.42;;;5.80;99.90;;;6.40;100.00;101498.44;5033447;28;20060;-85
2022/01/29 04:03:22;;;;;;;39.28;19.90;;;5.80;99.90;;;6.45;100.00;101494.72;5016821;28;20034;-86
2022/01/29 04:05:47;;;;;;;38.08;20.42;;;5.80;99.90;;;6.42;100.00;101495.34;5031736;28;20033;-86
2022/01/29 04:08:18;;;;;;;44.40;20.35;;;5.80;99.90;;;6.48;100.00;101483.84;5016606;28;20109;-83
2022/01/29 04:10:46;;;;;;;43.45;19.80;;;5.80;99.90;;;6.44;100.00;101480.03;5016491;28;20029;-85
2022/01/29 04:13:14;;;;;;;39.28;20.08;;;5.80;99.90;;;6.44;100.00;101479.19;5018211;28;20053;-85
2022/01/29 04:15:44;;;;;;;37.30;20.17;;;5.80;99.90;;;6.49;100.00;101479.09;5046546;28;20032;-87
2022/01/29 04:18:09;;;;;;;44.92;21.90;;;5.80;99.90;;;6.49;100.00;101474.34;5015992;28;20164;-84
2022/01/29 04:20:36;;;;;;;46.45;21.00;;;5.80;99.90;;;6.42;100.00;101467.59;5015177;28;20057;-84
2022/01/29 04:23:07;;;;;;;42.35;21.00;;;5.80;99.90;;;6.45;100.00;101473.34;5015568;28;20034;-84
2022/01/29 04:25:34;;;;;;;43.70;21.75;;;5.80;99.90;;;6.44;100.00;101460.59;5036565;28;20037;-85
2022/01/29 04:28:01;;;;;;;34.97;19.48;;;5.80;99.90;;;6.35;100.00;101460.53;5053191;28;20174;-85
2022/01/29 04:30:32;;;;;;;44.45;21.27;;;5.80;99.90;;;6.40;100.00;101464.31;5060428;28;20025;-86
2022/01/29 04:33:23;;;;;;;39.95;20.30;;;5.80;99.90;;;6.39;100.00;101465.44;5049070;28;20092;-85
2022/01/29 04:35:51;;;;;;;37.95;18.33;;;5.80;99.90;;;6.40;100.00;101473.44;5069729;28;20071;-88
2022/01/29 04:38:20;;;;;;;38.95;20.45;;;5.70;99.90;;;6.36;100.00;101472.41;5054632;28;20028;-87
2022/01/29 04:40:46;;;;;;;38.88;18.70;;;5.80;99.90;;;6.40;100.00;101469.84;5070179;28;20029;-87
2022/01/29 04:43:13;;;;;;;38.67;17.98;;;5.80;99.90;;;6.44;100.00;101473.66;5070056;28;20033;-84
2022/01/29 04:45:41;;;;;;;40.60;19.95;;;5.80;99.90;;;6.42;100.00;101473.97;5069896;28;20029;-83
2022/01/29 04:48:07;;;;;;;38.42;18.40;;;5.80;99.90;;;6.47;100.00;101476.63;5070962;28;20036;-84
2022/01/29 04:50:34;;;;;;;34.22;17.80;;;5.80;99.90;;;6.46;100.00;101474.97;5069670;28;20033;-86
2022/01/29 04:53:00;;;;;;;32.47;16.88;;;5.80;99.90;;;6.47;100.00;101462.75;5074627;28;20035;-81
2022/01/29 04:55:36;;;;;;;29.95;16.10;;;5.80;99.90;;;6.42;100.00;101465.66;5071829;28;20037;-87
2022/01/29 04:58:03;;;;;;;36.10;17.05;;;5.80;99.90;;;6.42;100.00;101459.28;5069620;28;20029;-87
2022/01/29 05:00:34;;;;;;;33.65;16.30;;;5.80;99.90;;;6.41;100.00;101452.06;5069989;28;20048;-87
2022/01/29 05:03:13;;;;;;;27.73;15.70;;;5.80;99.90;;;6.44;100.00;101455.06;5070259;28;20102;-86
2022/01/29 05:05:42;;;;;;;34.63;18.17;;;5.80;99.90;;;6.43;100.00;101447.84;5052618;28;20029;-86
2022/01/29 05:08:12;;;;;;;29.42;15.93;;;5.80;99.90;;;6.46;100.00;101450.00;5069944;28;20044;-89
2022/01/29 05:10:39;;;;;;;29.85;16.92;;;5.80;99.90;;;6.46;100.00;101444.44;5068523;28;20013;-87
2022/01/29 05:13:08;;;;;;;28.05;14.57;;;5.80;99.90;;;6.41;100.00;101441.81;5071084;28;20222;-84
2022/01/29 05:29:14;;;;;;;26.02;12.60;;;5.80;99.90;;;6.44;100.00;101438.41;5040928;28;20516;-84
2022/01/29 05:31:43;;;;;;;27.88;14.38;;;5.80;99.90;;;6.51;100.00;101436.03;5022981;28;20025;-85
2022/01/29 05:34:12;;;;;;;21.73;11.90;;;5.80;99.90;;;6.45;100.00;101419.81;5022686;28;20136;-87
2022/01/29 05:36:38;;;;;;;20.77;12.02;;;5.80;99.90;;;6.48;100.00;101408.91;5021549;28;20480;-85
2022/01/29 05:39:04;;;;;;;23.27;12.88;;;5.80;99.90;;;6.52;100.00;101414.66;5039860;28;20033;-85
2022/01/29 05:41:30;;;;;;;22.05;11.02;;;5.90;99.90;;;6.57;100.00;101403.41;5022688;28;20064;-83
2022/01/29 05:43:57;;;;;;;25.23;11.95;;;5.90;99.90;;;6.57;100.00;101411.75;5022631;28;20025;-83
2022/01/29 05:46:23;;;;;;;22.58;11.43;;;5.90;99.90;;;6.53;100.00;101410.72;5038444;28;20030;-87
2022/01/29 05:48:48;;;;;;;25.88;11.40;;;5.90;99.90;;;6.46;100.00;101402.81;5039294;28;20126;-84
2022/01/29 05:51:15;;;;;;;21.48;11.63;;;5.90;99.90;;;6.59;100.00;101406.69;5039126;28;20029;-83
2022/01/29 05:53:41;;;;;;;25.10;12.20;;;6.00;99.90;;;6.65;100.00;101406.25;5045919;28;20048;-85
2022/01/29 05:56:10;;;;;;;20.88;11.38;;;5.90;99.90;;;6.56;100.00;101401.78;5027860;28;20060;-86
2022/01/29 05:58:36;;;;;;;22.02;11.73;;;5.90;99.90;;;6.62;100.00;101393.00;5024287;28;20060;-85
2022/01/29 06:01:04;;;;;;;22.75;12.15;;;6.00;99.90;;;6.70;100.00;101397.84;5040988;28;20045;-87
2022/01/29 06:03:30;;;;;;;20.88;11.35;;;6.00;99.90;;;6.64;100.00;101399.09;5022093;28;20028;-87
2022/01/29 06:05:56;;;;;;;25.20;13.45;;;6.00;99.90;;;6.65;100.00;101397.09;5038443;28;20055;-83
2022/01/29 06:08:22;;;;;;;22.25;12.50;;;6.00;99.90;;;6.62;100.00;101384.69;5021915;28;20037;-84
2022/01/29 06:10:49;;;;;;;24.48;13.00;;;6.00;99.90;;;6.74;100.00;101398.81;5021988;28;20036;-86
2022/01/29 06:13:17;;;;;;;21.33;11.43;;;6.10;99.90;;;6.81;100.00;101399.22;5021294;28;20022;-84
2022/01/29 06:15:52;;;;;;;22.73;12.73;;;6.10;99.90;;;6.84;100.00;101393.03;5038467;28;20084;-87
2022/01/29 06:18:25;;;;;;;22.67;12.55;;;6.10;99.90;;;6.83;100.00;101388.63;5019960;28;20049;-86
2022/01/29 06:21:03;;;;;;;23.92;12.85;;;6.20;99.90;;;6.86;100.00;101388.00;5038055;28;20043;-86
2022/01/29 06:23:32;;;;;;;22.17;12.15;;;6.20;99.90;;;6.87;100.00;101384.06;5026963;28;20017;-81
2022/01/29 06:26:12;;;;;;;19.67;11.80;;;6.20;99.90;;;6.85;100.00;101394.69;5061940;28;20035;-85
2022/01/29 06:28:39;;;;;;;28.95;13.32;;;6.20;99.90;;;6.90;100.00;101386.22;5075200;28;20043;-85
2022/01/29 06:31:09;;;;;;;26.65;13.13;;;6.20;99.90;;;6.91;100.00;101381.47;5068358;28;20037;-82
2022/01/29 06:33:38;;;;;;;25.05;14.27;;;6.20;99.90;;;6.96;100.00;101386.09;5057584;28;20025;-85
2022/01/29 06:36:05;;;;;;;27.95;14.80;;;6.30;99.90;;;6.89;100.00;101376.25;5057602;28;20033;-84
2022/01/29 06:38:31;;;;;;;25.20;14.80;;;6.20;99.90;;;6.94;100.00;101388.34;5057104;28;20033;-86
2022/01/29 06:41:00;;;;;;;29.35;15.48;;;6.30;99.90;;;7.02;100.00;101384.81;5040624;28;20086;-85
2022/01/29 06:43:28;;;;;;;27.75;15.32;;;6.30;99.90;;;7.00;100.00;101373.22;5057219;28;20105;-85
2022/01/29 06:45:55;;;;;;;30.15;15.40;;;6.30;99.90;;;6.93;100.00;101370.88;5040298;28;20471;-83
2022/01/29 06:48:21;;;;;;;32.42;15.88;;;6.30;99.90;;;7.03;100.00;101375.38;5057088;28;20029;-88
2022/01/29 06:50:51;;;;;;;31.55;16.20;;;6.30;99.90;;;7.01;100.00;101366.50;5056939;28;20392;-85
2022/01/29 06:53:17;;;;;;;29.98;15.95;;;6.30;99.90;;;7.04;100.00;101352.00;5057422;28;20025;-85
2022/01/29 06:55:42;;;;;;;26.45;15.45;;;6.30;99.90;;;7.08;100.00;101344.66;5057153;28;20033;-84
2022/01/29 06:58:08;;;;;;;33.88;16.58;;;6.30;99.90;;;7.10;100.00;101356.28;5056345;28;20025;-85
2022/01/29 07:00:34;;;;;;;31.23;17.13;;;6.40;99.90;;;7.08;100.00;101353.81;5054963;28;20029;-83
2022/01/29 07:03:00;;;;;;;33.88;17.90;;;6.40;99.90;;;7.03;100.00;101344.81;5056868;28;20529;-86
2022/01/29 07:05:32;;;;;;;28.17;15.70;;;6.50;99.90;;;7.11;100.00;101342.06;5055380;28;20025;-83
2022/01/29 07:08:04;;;;;;;29.58;16.55;;;6.40;99.90;;;7.05;100.00;101343.34;5056971;28;20029;-87
2022/01/29 07:10:30;;;;;;;33.95;17.70;;;6.50;99.90;;;7.13;100.00;101344.53;5056210;28;20025;-87
2022/01/29 07:12:56;;;;;;;33.88;17.02;;;6.40;99.90;;;7.06;100.00;101338.63;5056828;28;20078;-85
2022/01/29 07:15:22;;;;;;;30.05;17.23;;;6.50;99.90;;;7.12;100.00;101346.50;5053095;28;20446;-85
2022/01/29 07:17:48;;;;;;;34.03;17.23;;;6.50;99.90;;;7.10;100.00;101347.94;5052620;28;20065;-85
2022/01/29 07:20:14;;;;;;;28.15;15.90;;;6.40;99.90;;;7.20;100.00;101350.44;5052799;28;20025;-87
2022/01/29 07:22:42;;;;;;;32.63;16.63;;;6.40;99.90;;;7.16;100.00;101347.47;5054673;28;20085;-86
2022/01/29 07:25:09;;;;;;;32.35;17.05;;;6.50;99.90;;;7.22;100.00;101348.19;5054521;28;20032;-85
2022/01/29 07:27:35;;;;;;;31.45;17.00;;;6.50;99.90;;;7.16;100.00;101341.94;5015692;28;20055;-84
2022/01/29 07:30:01;;;;;;;32.40;16.77;;;6.60;99.90;;;7.22;100.00;101356.53;4997422;28;20120;-87
2022/01/29 07:32:30;;;;;;;29.27;15.98;;;6.50;99.90;;;7.25;100.00;101344.78;4999183;28;20120;-86
2022/01/29 07:34:57;;;;;;;31.00;17.42;;;6.50;99.90;;;7.23;100.00;101338.69;4998478;28;20037;-86
2022/01/29 07:37:23;;;;;;;31.50;18.27;;;6.50;99.90;;;7.19;100.00;101335.72;4999856;28;20050;-85
2022/01/29 07:39:49;;;;;;;30.13;16.55;;;6.60;99.90;;;7.21;100.00;101335.44;4996710;28;20087;-86
2022/01/29 07:42:18;;;;;;;32.88;18.25;;;6.60;99.90;;;7.30;100.00;101331.56;4996048;28;20397;-86
2022/01/29 07:44:43;;;;;;;30.33;17.33;;;6.60;99.90;;;7.32;100.00;101334.81;4995698;28;20034;-87
2022/01/29 07:47:12;;;;;;;36.55;19.08;;;6.60;99.90;;;7.32;100.00;101332.03;4997291;28;20374;-85
2022/01/29 07:49:38;;;;;;;32.90;19.65;;;6.60;99.90;;;7.38;100.00;101335.53;4996497;28;20500;-84
2022/01/29 07:52:04;;;;;;;33.67;18.52;;;6.60;99.90;;;7.35;100.00;101333.38;4998313;28;20026;-85
2022/01/29 07:54:30;;;;;;;34.85;18.67;;;6.70;99.90;;;7.35;100.00;101314.72;4999476;28;20076;-88
2022/01/29 07:56:56;;;;;;;34.60;18.70;;;6.70;99.90;;;7.38;100.00;101321.63;4997135;28;20443;-88
2022/01/29 07:59:22;;;;;;;35.83;18.83;;;6.70;99.90;;;7.39;100.00;101309.34;4999979;28;20040;-85
2022/01/29 08:01:48;;;;;;;35.58;17.90;;;6.70;99.90;;;7.47;100.00;101322.47;5016564;28;20040;-86
2022/01/29 08:04:14;;;;;;;31.90;18.25;;;6.70;99.90;;;7.45;100.00;101312.81;5012851;28;20120;-86
2022/01/29 08:06:41;;;;;;;35.42;18.90;;;6.70;99.90;;;7.41;100.00;101318.22;5014692;28;20073;-86
2022/01/29 08:09:08;;;;;;;37.05;20.27;;;6.70;99.90;;;7.36;100.00;101307.22;5017667;28;20030;-86
2022/01/29 08:11:35;;;;;;;36.92;19.73;;;6.80;99.90;;;7.43;100.00;101302.00;5014293;28;20030;-83
2022/01/29 08:14:04;;;;;;;35.45;20.15;;;6.70;99.90;;;7.49;100.00;101309.06;4997820;28;20030;-87
2022/01/29 08:16:36;;;;;;;40.33;20.13;;;6.80;99.90;;;7.52;100.00;101296.47;4999960;28;20041;-85
2022/01/29 08:19:08;;;;;;;42.60;21.70;;;6.90;99.90;;;7.58;100.00;101307.13;5015547;28;20034;-86
2022/01/29 08:21:34;;;;;;;38.88;19.80;;;6.90;99.90;;;7.61;100.00;101302.91;5015645;28;20030;-84
2022/01/29 08:24:07;;;;;;;32.33;18.98;;;6.90;99.90;;;7.69;100.00;101307.66;5014797;28;20036;-85
2022/01/29 08:26:34;;;;;;;37.13;20.92;;;6.90;99.90;;;7.60;100.00;101290.16;5022057;28;20044;-83
2022/01/29 08:29:03;;;;;;;38.60;19.75;;;6.90;99.90;;;7.64;100.00;101300.28;5055647;28;20025;-85
2022/01/29 08:31:29;;;;;;;37.88;20.10;;;6.90;99.90;;;7.69;100.00;101296.53;5055915;28;20048;-85
2022/01/29 08:33:58;;;;;;;31.50;18.02;;;6.90;99.90;;;7.72;100.00;101298.69;5053300;28;20021;-84
2022/01/29 08:36:27;;;;;;;39.45;20.88;;;7.00;99.90;;;7.71;100.00;101299.81;5054891;28;20033;-82
2022/01/29 08:38:53;;;;;;;35.25;19.30;;;7.00;99.90;;;7.74;100.00;101302.75;5054371;28;20044;-79
2022/01/29 08:41:19;;;;;;;32.97;18.70;;;7.00;99.90;;;7.69;100.00;101299.31;5053023;28;20475;-83
2022/01/29 08:43:45;;;;;;;33.45;19.08;;;7.10;99.90;;;7.77;100.00;101301.31;5053910;28;20029;-85
2022/01/29 08:46:11;;;;;;;30.60;17.63;;;7.10;99.90;;;7.78;100.00;101300.16;5054486;28;20036;-83
2022/01/29 08:48:39;;;;;;;31.30;17.88;;;7.10;99.90;;;7.80;100.00;101301.47;5039097;28;20096;-87
2022/01/29 08:51:07;;;;;;;32.40;18.73;;;7.10;99.90;;;7.73;100.00;101295.59;5055988;28;20487;-84
2022/01/29 08:53:34;;;;;;;30.90;17.65;;;7.10;99.90;;;7.79;100.00;101274.81;5058573;28;20028;-83
2022/01/29 08:56:00;;;;;;;36.42;20.10;;;7.20;99.90;;;7.94;100.00;101274.34;5059061;28;20052;-83
2022/01/29 08:58:26;;;;;;;32.83;19.08;;;7.20;99.90;;;7.95;100.00;101256.50;5057472;28;20036;-81
2022/01/29 09:00:53;;;;;;;28.10;17.73;;;7.20;99.90;;;7.91;100.00;101260.25;5057592;28;20025;-80
2022/01/29 09:03:23;;;;;;;29.17;18.38;;;7.30;99.90;;;7.95;100.00;101264.03;5059346;28;20067;-85
2022/01/29 09:05:49;;;;;;;30.33;17.58;;;7.30;99.90;;;8.10;100.00;101263.56;5042578;28;20025;-84
2022/01/29 09:08:18;;;;;;;30.33;16.95;;;7.40;99.90;;;8.10;100.00;101268.28;5058967;28;20142;-86
2022/01/29 09:10:44;;;;;;;28.58;18.08;;;7.40;99.90;;;8.17;100.00;101268.63;5059355;28;20025;-81
2022/01/29 09:13:17;;;;;;;28.85;17.23;;;7.40;99.90;;;8.14;100.00;101264.53;5041973;28;20439;-81
2022/01/29 09:15:45;;;;;;;29.13;16.75;;;7.40;99.90;;;8.15;100.00;101262.59;5059332;28;20031;-80
2022/01/29 09:18:14;;;;;;;29.60;16.67;;;7.50;99.90;;;8.22;100.00;101252.56;5041705;28;20514;-84
2022/01/29 09:20:40;;;;;;;25.33;16.02;;;7.50;99.90;;;8.21;100.00;101248.19;5056016;28;20025;-83
2022/01/29 09:23:13;;;;;;;23.83;16.20;;;7.50;99.90;;;8.26;100.00;101241.63;5056996;28;20395;-80
2022/01/29 09:25:42;;;;;;;26.58;15.80;;;7.50;99.90;;;8.34;100.00;101236.09;5034472;28;20197;-83
2022/01/29 09:28:12;;;;;;;25.85;15.68;;;7.60;99.90;;;8.29;100.00;101238.19;5003052;28;20041;-80
2022/01/29 09:30:40;;;;;;;24.10;15.05;;;7.60;99.90;;;8.25;100.00;101235.22;5005693;28;20045;-83
2022/01/29 09:33:06;;;;;;;22.48;14.70;;;7.60;99.90;;;8.29;100.00;101229.84;5004368;28;20018;-81
2022/01/29 09:35:32;;;;;;;24.20;14.93;;;7.60;99.90;;;8.32;100.00;101243.94;5021584;28;20460;-77
2022/01/29 09:37:58;;;;;;;20.80;14.02;;;7.60;99.90;;;8.34;100.00;101246.41;5004209;28;20029;-84
2022/01/29 09:40:25;;;;;;;21.17;13.85;;;7.60;99.90;;;8.34;100.00;101238.06;5025592;28;20285;-83
2022/01/29 09:42:52;;;;;;;19.52;14.15;;;7.60;99.90;;;8.36;100.00;101236.56;5005263;28;20539;-82
2022/01/29 09:45:24;;;;;;;23.17;15.35;;;7.60;99.90;;;8.37;100.00;101229.88;5005497;28;20081;-82
2022/01/29 09:48:01;;;;;;;22.70;14.55;;;7.60;99.90;;;8.34;100.00;101233.31;5022350;28;20525;-83
2022/01/29 09:50:30;;;;;;;21.67;13.57;;;7.60;99.90;;;8.40;100.00;101232.00;5002830;28;20033;-83
2022/01/29 09:52:57;;;;;;;21.85;13.40;;;7.70;99.90;;;8.46;100.00;101218.72;5020080;28;20558;-85
2022/01/29 09:55:24;;;;;;;25.05;16.20;;;7.80;99.90;;;8.48;100.00;101226.75;5019657;28;20370;-85
2022/01/29 09:57:53;;;;;;;23.58;14.25;;;7.80;99.90;;;8.42;100.00;101207.41;5019915;28;20034;-84
2022/01/29 10:00:28;;;;;;;21.77;13.80;;;7.80;99.90;;;8.52;100.00;101222.94;5019897;28;20037;-87
2022/01/29 10:05:35;;;;;;;23.45;14.38;;;7.80;99.90;;;8.59;100.00;101219.66;5012717;28;20049;-74
2022/01/29 10:08:03;;;;;;;20.52;12.98;;;7.80;99.90;;;8.51;100.00;101223.28;5012656;28;20025;-76
2022/01/29 10:10:56;;;;;;;19.63;12.68;;;7.80;99.90;;;8.57;100.00;101221.97;5013967;28;20033;-76
2022/01/29 10:13:36;;;;;;;18.90;12.52;;;7.90;99.90;;;8.63;100.00;101224.25;5016362;28;20030;-74
2022/01/29 10:16:28;;;;;;;15.95;11.65;;;7.90;99.90;;;8.67;100.00;101225.19;4998648;28;20099;-75
2022/01/29 10:19:13;;;;;;;22.33;12.45;;;7.90;99.90;;;8.69;100.00;101216.53;4997138;28;20034;-76
2022/01/29 10:21:47;;;;;;;21.20;13.17;;;8.00;99.90;;;8.69;100.00;101213.75;4996376;28;20041;-74
2022/01/29 10:24:19;;;;;;;19.42;13.80;;;8.00;99.90;;;8.71;100.00;101209.47;5012326;28;20331;-74
2022/01/29 10:26:50;;;;;;;18.70;13.07;;;8.00;99.90;;;8.83;100.00;101217.16;5027414;28;20393;-75
2022/01/29 10:29:27;;;;;;;19.27;13.27;;;8.00;99.90;;;8.85;100.00;101210.09;5033666;28;20059;-74
2022/01/29 10:31:57;;;;;;;23.20;14.48;;;8.00;99.90;;;8.81;100.00;101197.16;5033770;28;20021;-74
2022/01/29 10:34:30;;;;;;;26.35;15.05;;;8.10;99.90;;;8.76;100.00;101187.03;5034081;28;20484;-73